D/T METAR WX W/DIR W/SPE G/SPE TEMP DEWP
8/12/19 10:50 EGNM 081050Z 24018G29KT 9999 -SHRA FEW012 SCT023TCU 07/04 Q0991 -SHRA WSW (240°) 20.7mph 33.4mph 7°C 4°C
8/12/19 09:50 EGNM 080950Z 24016KT 200V260 9000 -SHRA FEW010 SCT023TCU 06/04 Q0992 -SHRA WSW (240°) 18.4mph 6°C 4°C
8/12/19 09:20 EGNM 080920Z 23017KT 9999 -SHRA FEW010 SCT023TCU 06/04 Q0991 -SHRA SW (230°) 19.6mph 6°C 4°C
8/12/19 08:50 EGNM 080850Z 25026G37KT 9000 -RA SCT020TCU 06/04 Q0992 -RA WSW (250°) 29.9mph 42.6mph 6°C 4°C
8/12/19 08:20 EGNM 080820Z 24018G33KT 9999 -DZ SCT021 07/04 Q0991 -DZ WSW (240°) 20.7mph 38.0mph 7°C 4°C
8/12/19 07:50 EGNM 080750Z 24018KT 9999 VCSH SCT021 07/04 Q0992 VCSH WSW (240°) 20.7mph 7°C 4°C
8/12/19 07:20 EGNM 080720Z 25018KT 9999 -SHRA FEW020 07/04 Q0992 -SHRA WSW (250°) 20.7mph 7°C 4°C
8/12/19 06:50 EGNM 080650Z 26019KT 9999 -SHRA SCT020 06/04 Q0992 -SHRA W (260°) 21.9mph 6°C 4°C
8/12/19 06:20 EGNM 080620Z 26020G30KT 9999 -SHRA SCT020 06/05 Q0991 -SHRA W (260°) 23.0mph 34.5mph 6°C 5°C
8/12/19 05:50 EGNM 080550Z 26020G33KT 9999 -RA FEW008 07/05 Q0990 -RA W (260°) 23.0mph 38.0mph 7°C 5°C
8/12/19 05:20 EGNM 080520Z 26022G32KT 9999 -RA FEW008 07/04 Q0990 -RA W (260°) 25.3mph 36.8mph 7°C 4°C
8/12/19 04:50 EGNM 080450Z 26029G41KT 9999 -RA FEW015 07/05 Q0990 -RA W (260°) 33.4mph 47.2mph 7°C 5°C
8/12/19 03:50 EGNM 080350Z 25026G41KT 9999 -RA FEW015 09/06 Q0989 -RA WSW (250°) 29.9mph 47.2mph 9°C 6°C
8/12/19 03:20 EGNM 080320Z 25024G39KT 9999 -RA FEW015 09/07 Q0988 -RA WSW (250°) 27.6mph 44.9mph 9°C 7°C
8/12/19 02:50 EGNM 080250Z 23018KT 9999 -RA BKN010 10/09 Q0989 -RA SW (230°) 20.7mph 10°C 9°C
8/12/19 02:20 EGNM 080220Z 21017G29KT 9999 -RA SCT009 09/09 Q0989 -RA SSW (210°) 19.6mph 33.4mph 9°C 9°C
8/12/19 01:50 EGNM 080150Z 21016G27KT 9999 -RA SCT010 10/08 Q0989 -RA SSW (210°) 18.4mph 31.1mph 10°C 8°C
8/12/19 01:20 EGNM 080120Z 20017KT 9999 -RA SCT010 09/08 Q0990 -RA SSW (200°) 19.6mph 9°C 8°C
8/12/19 00:50 EGNM 080050Z 21022G40KT 9999 -RA SCT010 09/08 Q0991 -RA SSW (210°) 25.3mph 46.0mph 9°C 8°C
8/12/19 00:20 EGNM 080020Z 21023G34KT 9999 -RA SCT010 09/07 Q0992 -RA SSW (210°) 26.5mph 39.1mph 9°C 7°C
7/12/19 23:50 EGNM 072350Z 20018G28KT 9999 -RA SCT013 09/07 Q0993 -RA SSW (200°) 20.7mph 32.2mph 9°C 7°C
7/12/19 23:20 EGNM 072320Z 19020G33KT 9999 -RA SCT013 09/07 Q0993 -RA S (190°) 23.0mph 38.0mph 9°C 7°C
7/12/19 22:50 EGNM 072250Z 20025G39KT 9999 -RA BKN012 09/07 Q0994 -RA SSW (200°) 28.8mph 44.9mph 9°C 7°C
7/12/19 22:20 EGNM 072220Z 20020G30KT 9999 -RA BKN012 09/07 Q0996 -RA SSW (200°) 23.0mph 34.5mph 9°C 7°C
7/12/19 21:50 EGNM 072150Z 20016G27KT 9999 BKN012 09/06 Q0997 SSW (200°) 18.4mph 31.1mph 9°C 6°C
7/12/19 21:20 EGNM 072120Z 20015KT 9999 BKN012 09/07 Q0998 SSW (200°) 17.3mph 9°C 7°C
7/12/19 20:50 EGNM 072050Z 21016KT 9999 BKN010 09/07 Q0999 SSW (210°) 18.4mph 9°C 7°C
7/12/19 20:20 EGNM 072020Z 21016KT 9999 BKN010 09/07 Q1000 SSW (210°) 18.4mph 9°C 7°C
7/12/19 19:20 EGNM 071920Z 21013KT 9999 FEW008 SCT010 09/07 Q1002 SSW (210°) 15.0mph 9°C 7°C
7/12/19 18:50 EGNM 071850Z 21013KT 9999 SCT010 08/07 Q1003 SSW (210°) 15.0mph 8°C 7°C
7/12/19 18:20 EGNM 071820Z 22015KT 9999 SCT010 09/07 Q1003 SW (220°) 17.3mph 9°C 7°C
7/12/19 17:50 EGNM 071750Z 21018KT 9999 SCT013 SCT032 09/07 Q1004 SSW (210°) 20.7mph 9°C 7°C
7/12/19 16:50 EGNM 071650Z 20010KT 9999 SCT012 SCT018 08/06 Q1005 SSW (200°) 11.5mph 8°C 6°C
7/12/19 16:20 EGNM 071620Z 21011KT 9999 SCT012 SCT018 09/06 Q1005 SSW (210°) 12.7mph 9°C 6°C
7/12/19 15:50 EGNM 071550Z 22011KT 9999 FEW008 SCT010 08/06 Q1006 SW (220°) 12.7mph 8°C 6°C
7/12/19 14:50 EGNM 071450Z 22007KT 9999 SCT019 09/06 Q1006 SW (220°) 8.1mph 9°C 6°C
7/12/19 14:20 EGNM 071420Z 22010KT 9999 FEW018 09/06 Q1006 SW (220°) 11.5mph 9°C 6°C
7/12/19 13:50 EGNM 071350Z 23012KT 9999 FEW021 09/06 Q1007 SW (230°) 13.8mph 9°C 6°C
7/12/19 13:20 EGNM 071320Z 23013KT 9999 FEW019 08/06 Q1007 SW (230°) 15.0mph 8°C 6°C
7/12/19 12:50 EGNM 071250Z 24015KT 9999 SCT014 08/05 Q1007 WSW (240°) 17.3mph 8°C 5°C
7/12/19 12:20 EGNM 071220Z 23020KT 9999 SCT013 SCT020 08/06 Q1007 SW (230°) 23.0mph 8°C 6°C
7/12/19 11:50 EGNM 071150Z 23016KT 9999 SCT012 SCT027 08/06 Q1008 SW (230°) 18.4mph 8°C 6°C
7/12/19 11:20 EGNM 071120Z 24015KT 9999 -DZ SCT016 SCT028 08/06 Q1008 -DZ WSW (240°) 17.3mph 8°C 6°C
7/12/19 10:50 EGNM 071050Z 24011KT 9999 SCT016 SCT028 08/06 Q1009 WSW (240°) 12.7mph 8°C 6°C
7/12/19 10:20 EGNM 071020Z 25013KT 210V280 9999 -SHRA FEW012 SCT031 08/06 Q1009 -SHRA WSW (250°) 15.0mph 8°C 6°C
7/12/19 09:50 EGNM 070950Z 25017KT 9999 -SHRA FEW013 SCT028 08/06 Q1009 -SHRA WSW (250°) 19.6mph 8°C 6°C
7/12/19 09:20 EGNM 070920Z 25021KT 9999 -SHRA FEW011 SCT026 08/06 Q1008 -SHRA WSW (250°) 24.2mph 8°C 6°C
7/12/19 08:50 EGNM 070850Z 26019KT 9999 -SHRA SCT013 SCT027 07/06 Q1008 -SHRA W (260°) 21.9mph 7°C 6°C